KCVO

Corvallis Municipal Airport

Corvallis, Oregon, USA
METAR KCVO 221833Z AUTO 08003KT 10SM SCT002 10/08 A2996 RMK AO2
Observed Flight Rules
Oct-22 @ 18:33 UTC (24 minutes ago) Visual Flight Rules
Wind Visibility Clouds
80° at 3 knots 10 miles
  • Scattered at 200' AGL
Temperatures Readings
Current 10°C / 50°F
Dewpoint 8°C / 46°F
Humidity 88%
Altimeter 29.96" Hg
Pressure 1015 hPa
Elevation 75
METAR KCVO 221833Z AUTO 08003KT 10SM SCT002 10/08 A2996 RMK AO2
Observed Flight Rules
Oct-22 @ 18:33 UTC
(24 minutes ago)
VFR
Wind Visibility
80° at 3 knots 10 miles
Clouds
  • Scattered at 200' AGL
Temperature Dewpoint
10°C / 50°F 8°C / 46°F
Humidity Altimeter Pressure
88% 29.96" Hg 1015 hPa